Time;durP1;ratioP1;P1;durP2;ratioP2;P2;SDS_P1;SDS_P2;PMS_P1;PMS_P2;Temp;Humidity;BMP_temperature;BMP_pressure;BME280_temperature;BME280_humidity;BME280_pressure;Samples;Min_cycle;Max_cycle;Signal;HPM_P1;HPM_P2
2022/01/28 00:01:04;;;;;;;15.60;3.30;;;5.20;99.90;;;;;;6274388;22;20061;-83
2022/01/28 00:03:32;;;;;;;14.47;2.97;;;5.20;99.90;;;;;;6224388;22;20019;-84
2022/01/28 00:05:58;;;;;;;15.03;3.63;;;5.20;99.90;;;;;;6248677;22;20038;-83
2022/01/28 00:08:24;;;;;;;12.13;2.77;;;5.20;99.90;;;;;;6222890;22;20444;-82
2022/01/28 00:10:52;;;;;;;14.07;3.40;;;5.20;99.90;;;;;;6249057;22;20107;-83
2022/01/28 00:13:24;;;;;;;18.63;4.10;;;5.20;99.90;;;;;;6248308;22;20075;-82
2022/01/28 00:37:24;;;;;;;17.40;3.57;;;5.40;99.90;;;;;;6251845;22;20019;-82
2022/01/28 00:39:51;;;;;;;15.00;3.07;;;5.50;99.90;;;;;;6227069;22;20022;-81
2022/01/28 00:42:17;;;;;;;17.10;3.33;;;5.40;99.90;;;;;;6247961;22;20019;-82
2022/01/28 00:44:43;;;;;;;14.60;2.90;;;5.40;99.90;;;;;;6248282;22;20046;-77
2022/01/28 00:47:09;;;;;;;16.43;3.43;;;5.40;99.90;;;;;;6249720;22;20378;-83
2022/01/28 00:49:35;;;;;;;16.10;2.77;;;5.50;99.90;;;;;;6276226;22;20090;-84
2022/01/28 00:52:01;;;;;;;11.27;2.67;;;5.50;99.90;;;;;;6224409;22;20022;-83
2022/01/28 00:54:26;;;;;;;12.03;2.90;;;5.50;99.90;;;;;;6249538;22;20098;-82
2022/01/28 00:56:52;;;;;;;13.67;2.90;;;5.40;99.90;;;;;;6250153;22;20022;-83
2022/01/28 00:59:18;;;;;;;20.70;3.50;;;5.40;99.90;;;;;;6249805;22;20383;-83
2022/01/28 01:01:44;;;;;;;18.97;3.97;;;5.30;99.90;;;;;;6224002;22;20019;-82
2022/01/28 01:04:11;;;;;;;16.90;4.33;;;5.30;99.90;;;;;;6224355;22;20360;-83
2022/01/28 01:06:37;;;;;;;16.67;3.83;;;5.20;99.90;;;;;;6224987;22;20376;-83
2022/01/28 01:09:04;;;;;;;18.70;4.13;;;5.20;99.90;;;;;;6275705;22;20452;-82
2022/01/28 01:11:30;;;;;;;18.20;3.63;;;5.20;99.90;;;;;;6224519;22;20106;-82
2022/01/28 01:13:57;;;;;;;17.23;4.37;;;5.10;99.90;;;;;;6199478;22;20243;-83
2022/01/28 01:16:42;;;;;;;18.08;3.63;;;5.10;99.90;;;;;;6226570;22;20023;-83
2022/01/28 01:21:40;;;;;;;29.00;5.70;;;5.10;99.90;;;;;;6275951;22;20094;-84
2022/01/28 01:24:09;;;;;;;18.43;4.57;;;5.10;99.90;;;;;;6249866;22;20030;-83
2022/01/28 01:26:38;;;;;;;24.10;4.53;;;5.20;99.90;;;;;;6250561;22;20015;-84
2022/01/28 01:29:08;;;;;;;19.23;3.47;;;5.10;99.90;;;;;;6249876;22;20023;-81
2022/01/28 01:31:35;;;;;;;18.70;3.63;;;5.20;99.90;;;;;;6249210;22;20515;-83
2022/01/28 01:34:10;;;;;;;18.63;4.43;;;5.30;99.90;;;;;;6275208;22;20058;-83
2022/01/28 01:36:36;;;;;;;17.93;3.40;;;5.20;99.90;;;;;;6249682;22;20015;-83
2022/01/28 01:39:03;;;;;;;15.30;3.87;;;5.30;99.90;;;;;;6248625;22;20015;-83
2022/01/28 01:41:37;;;;;;;21.13;4.13;;;5.30;99.90;;;;;;6248962;22;20485;-82
2022/01/28 01:44:15;;;;;;;22.03;4.27;;;5.30;99.90;;;;;;6225101;22;20343;-82
2022/01/28 01:52:00;;;;;;;19.10;4.13;;;5.40;99.90;;;;;;6249299;22;20094;-83
2022/01/28 01:52:30;;;;;;;18.53;3.47;;;5.40;99.90;;;;;;6252844;22;20027;-83
2022/01/28 01:54:55;;;;;;;22.67;3.87;;;5.50;99.90;;;;;;6224237;22;20077;-83
2022/01/28 01:57:21;;;;;;;18.43;3.40;;;5.50;99.90;;;;;;6197305;22;20022;-83
2022/01/28 01:59:48;;;;;;;18.67;3.93;;;5.40;99.90;;;;;;6247369;22;20371;-83
2022/01/28 02:02:14;;;;;;;18.27;3.90;;;5.60;99.90;;;;;;6248790;22;20015;-82
2022/01/28 02:04:40;;;;;;;16.20;3.90;;;5.50;99.90;;;;;;6249098;22;20436;-83
2022/01/28 02:07:06;;;;;;;18.70;3.83;;;5.40;99.90;;;;;;6249094;22;20030;-83
2022/01/28 02:09:32;;;;;;;18.63;4.07;;;5.40;99.90;;;;;;6223069;22;20023;-82
2022/01/28 02:11:58;;;;;;;18.20;3.67;;;5.40;99.90;;;;;;6273839;22;20150;-82
2022/01/28 02:14:25;;;;;;;18.77;3.47;;;5.40;99.90;;;;;;6247241;22;20763;-82
2022/01/28 02:16:51;;;;;;;19.90;4.40;;;5.40;99.90;;;;;;6274879;22;20106;-82
2022/01/28 02:19:17;;;;;;;23.13;4.20;;;5.50;99.90;;;;;;6223758;22;20065;-83
2022/01/28 02:21:49;;;;;;;19.37;3.60;;;5.50;99.90;;;;;;6198296;22;20065;-82
2022/01/28 02:24:20;;;;;;;16.93;3.80;;;5.40;99.90;;;;;;6250411;22;20387;-83
2022/01/28 02:26:45;;;;;;;;;;;5.50;99.90;;;;;;6250024;22;20019;-80
2022/01/28 02:29:25;;;;;;;22.20;4.63;;;5.50;99.90;;;;;;6248752;22;20394;-83
2022/01/28 02:31:51;;;;;;;20.42;4.43;;;5.50;99.90;;;;;;6204434;22;20551;-82
2022/01/28 02:34:17;;;;;;;21.02;4.55;;;5.50;99.90;;;;;;6248546;22;20418;-82
2022/01/28 02:36:43;;;;;;;22.17;5.40;;;5.60;99.90;;;;;;6223640;22;20313;-83
2022/01/28 02:39:11;;;;;;;23.10;4.27;;;5.50;99.90;;;;;;6223591;22;20019;-83
2022/01/28 02:41:40;;;;;;;21.90;4.53;;;5.60;99.90;;;;;;6224410;22;20019;-84
2022/01/28 02:44:19;;;;;;;20.10;4.65;;;5.60;99.90;;;;;;6273363;22;20351;-82
2022/01/28 02:46:58;;;;;;;21.20;4.13;;;5.60;99.90;;;;;;6225934;22;20722;-82
2022/01/28 02:49:36;;;;;;;22.83;4.87;;;5.60;99.90;;;;;;6251168;22;20015;-82
2022/01/28 02:52:03;;;;;;;22.60;4.43;;;5.60;99.90;;;;;;6226473;22;20072;-83
2022/01/28 02:54:32;;;;;;;21.30;4.33;;;5.70;99.90;;;;;;6248936;22;20019;-81
2022/01/28 02:57:03;;;;;;;22.37;5.10;;;5.60;99.90;;;;;;6248020;22;20519;-82
2022/01/28 02:59:29;;;;;;;21.20;4.38;;;5.60;99.90;;;;;;6248456;22;20102;-82
2022/01/28 03:01:55;;;;;;;22.87;4.30;;;5.60;99.90;;;;;;6247118;22;20019;-81
2022/01/28 03:06:52;;;;;;;23.57;5.27;;;5.50;99.90;;;;;;6248439;22;20459;-84
2022/01/28 03:09:20;;;;;;;19.13;4.40;;;5.50;99.90;;;;;;6248549;22;20022;-81
2022/01/28 03:11:59;;;;;;;19.07;4.30;;;5.50;99.90;;;;;;6249366;22;20019;-81
2022/01/28 03:14:36;;;;;;;20.37;4.83;;;5.50;99.90;;;;;;6248148;22;20018;-81
2022/01/28 03:19:41;;;;;;;18.70;4.60;;;5.50;99.90;;;;;;6275163;22;20054;-81
2022/01/28 03:22:07;;;;;;;19.80;4.43;;;5.50;99.90;;;;;;6274736;22;20537;-82
2022/01/28 03:24:33;;;;;;;20.27;4.50;;;5.50;99.90;;;;;;6198506;22;20102;-81
2022/01/28 03:27:05;;;;;;;23.70;4.57;;;5.60;99.90;;;;;;6199315;22;20026;-81
2022/01/28 03:29:31;;;;;;;26.03;4.93;;;5.60;99.90;;;;;;6225238;22;20348;-82
2022/01/28 03:31:57;;;;;;;23.93;4.83;;;5.60;99.90;;;;;;6249242;22;20019;-81
2022/01/28 03:34:23;;;;;;;25.93;5.50;;;5.50;99.90;;;;;;6274109;22;20030;-81
2022/01/28 03:36:51;;;;;;;25.40;4.93;;;5.50;99.90;;;;;;6223984;22;20011;-82
2022/01/28 03:39:17;;;;;;;25.07;5.10;;;5.40;99.90;;;;;;6274720;22;20596;-81
2022/01/28 03:41:45;;;;;;;29.77;6.30;;;5.40;99.90;;;;;;6224246;22;20012;-81
2022/01/28 03:44:11;;;;;;;23.47;5.23;;;5.40;99.90;;;;;;6247323;22;20011;-81
2022/01/28 03:46:37;;;;;;;26.67;5.27;;;5.30;99.90;;;;;;6249245;22;20088;-81
2022/01/28 03:49:04;;;;;;;26.60;5.33;;;5.30;99.90;;;;;;6223968;22;20022;-82
2022/01/28 03:51:30;;;;;;;25.97;5.87;;;5.20;99.90;;;;;;6248949;22;20019;-81
2022/01/28 03:53:56;;;;;;;19.97;4.67;;;5.20;99.90;;;;;;6223597;22;20062;-81
2022/01/28 03:56:22;;;;;;;22.00;5.27;;;5.10;99.90;;;;;;6223643;22;20060;-81
2022/01/28 03:58:48;;;;;;;25.77;5.03;;;5.10;99.90;;;;;;6248349;22;20015;-81
2022/01/28 04:01:29;;;;;;;28.80;6.43;;;5.10;99.90;;;;;;6222582;22;20015;-81
2022/01/28 04:11:53;;;;;;;22.20;5.37;;;5.10;99.90;;;;;;6252373;22;20027;-81
2022/01/28 04:14:37;;;;;;;24.20;5.10;;;5.10;99.90;;;;;;6223024;22;20022;-82
2022/01/28 04:19:32;;;;;;;23.87;5.03;;;5.20;99.90;;;;;;6274174;22;20098;-82
2022/01/28 04:21:58;;;;;;;26.77;6.40;;;5.20;99.90;;;;;;6225501;22;20019;-82
2022/01/28 04:24:24;;;;;;;27.33;5.33;;;5.20;99.90;;;;;;6225269;22;20104;-81
2022/01/28 04:26:50;;;;;;;23.43;6.07;;;5.20;99.90;;;;;;6251213;22;20019;-81
2022/01/28 04:29:16;;;;;;;19.83;4.80;;;5.00;99.90;;;;;;6251011;22;20507;-81
2022/01/28 04:31:45;;;;;;;21.53;4.33;;;4.90;99.90;;;;;;6226759;22;20061;-82
2022/01/28 04:34:12;;;;;;;26.83;5.20;;;5.00;99.90;;;;;;6226099;22;20019;-82
2022/01/28 04:36:49;;;;;;;23.30;4.97;;;5.00;99.90;;;;;;6251816;22;20015;-82
2022/01/28 04:39:37;;;;;;;30.97;6.37;;;4.90;99.90;;;;;;6228054;22;20047;-82
2022/01/28 04:42:18;;;;;;;26.23;5.73;;;4.80;99.90;;;;;;6255878;22;20086;-82
2022/01/28 04:57:51;;;;;;;25.10;5.30;;;4.90;99.90;;;;;;6276031;22;20092;-80
2022/01/28 05:00:48;;;;;;;24.77;5.67;;;5.00;99.90;;;;;;6275682;22;20038;-81
2022/01/28 05:14:21;;;;;;;23.47;5.13;;;5.00;99.90;;;;;;6249294;22;20026;-81
2022/01/28 05:27:08;;;;;;;26.47;6.40;;;5.00;99.90;;;;;;6224573;22;20023;-81
2022/01/28 05:29:33;;;;;;;25.60;5.60;;;5.00;99.90;;;;;;6201498;22;20393;-83
2022/01/28 05:32:00;;;;;;;32.53;6.77;;;5.10;99.90;;;;;;6224382;22;20019;-81
2022/01/28 05:34:27;;;;;;;23.70;5.13;;;5.20;99.90;;;;;;6249116;22;20018;-81
2022/01/28 05:36:54;;;;;;;27.07;5.60;;;5.30;99.90;;;;;;6250851;22;20419;-82
2022/01/28 05:39:20;;;;;;;28.87;5.60;;;5.30;99.90;;;;;;6249562;22;20202;-82
2022/01/28 05:41:47;;;;;;;26.37;5.40;;;5.40;99.90;;;;;;6275566;22;20023;-82
2022/01/28 05:44:13;;;;;;;27.50;6.40;;;5.50;99.90;;;;;;6248960;22;20072;-82
2022/01/28 05:46:39;;;;;;;27.60;5.60;;;5.50;99.90;;;;;;6248985;22;20026;-82
2022/01/28 05:49:05;;;;;;;24.97;5.30;;;5.50;99.90;;;;;;6249234;22;20016;-81
2022/01/28 05:51:31;;;;;;;25.67;6.50;;;5.50;99.90;;;;;;6223658;22;20015;-81
2022/01/28 05:53:58;;;;;;;27.63;5.60;;;5.40;99.90;;;;;;6250432;22;20392;-82
2022/01/28 05:56:31;;;;;;;29.70;6.53;;;5.40;99.90;;;;;;6249141;22;20156;-82
2022/01/28 05:58:58;;;;;;;27.03;6.00;;;5.40;99.90;;;;;;6201145;22;20415;-82
2022/01/28 06:01:24;;;;;;;29.70;5.83;;;5.40;99.90;;;;;;6223606;22;20023;-81
2022/01/28 06:03:50;;;;;;;31.60;7.03;;;5.30;99.90;;;;;;6274425;22;20022;-81
2022/01/28 06:06:22;;;;;;;28.73;5.93;;;5.20;99.90;;;;;;6224199;22;20053;-81
2022/01/28 06:08:56;;;;;;;25.10;5.77;;;5.20;99.90;;;;;;6275452;22;20058;-81
2022/01/28 06:11:24;;;;;;;30.20;6.67;;;5.10;99.90;;;;;;6249381;22;20026;-82
2022/01/28 06:13:51;;;;;;;28.00;5.83;;;5.10;99.90;;;;;;6248538;22;20015;-82
2022/01/28 06:16:18;;;;;;;26.57;6.27;;;5.10;99.90;;;;;;6274792;22;20164;-82
2022/01/28 06:18:44;;;;;;;27.60;5.83;;;5.10;99.90;;;;;;6275822;22;20015;-82
2022/01/28 06:21:11;;;;;;;29.70;5.90;;;5.10;99.90;;;;;;6249736;22;20052;-82
2022/01/28 06:23:37;;;;;;;22.93;5.30;;;5.10;99.90;;;;;;6249010;22;20525;-81
2022/01/28 06:26:04;;;;;;;24.03;5.77;;;5.10;99.90;;;;;;6225333;22;20026;-82
2022/01/28 06:28:30;;;;;;;37.67;6.70;;;5.00;99.90;;;;;;6223866;22;20015;-82
2022/01/28 06:30:56;;;;;;;20.00;4.87;;;5.00;99.90;;;;;;6275602;22;20409;-81
2022/01/28 06:33:22;;;;;;;22.13;5.43;;;5.00;99.90;;;;;;6224141;22;20040;-82
2022/01/28 06:35:48;;;;;;;22.23;5.00;;;5.00;99.90;;;;;;6249434;22;20870;-82
2022/01/28 06:38:15;;;;;;;23.03;5.70;;;5.10;99.90;;;;;;6250214;22;20016;-83
2022/01/28 06:40:41;;;;;;;25.70;5.60;;;5.10;99.90;;;;;;6224811;22;20090;-81
2022/01/28 06:43:14;;;;;;;31.07;6.67;;;5.10;99.90;;;;;;6249537;22;20440;-82
2022/01/28 06:45:42;;;;;;;22.57;5.83;;;5.10;99.90;;;;;;6272969;22;20080;-82
2022/01/28 06:48:16;;;;;;;23.30;5.93;;;5.10;99.90;;;;;;6249851;22;20015;-82
2022/01/28 06:50:43;;;;;;;26.37;7.03;;;5.00;99.90;;;;;;6275135;22;20076;-82
2022/01/28 06:53:11;;;;;;;28.63;5.30;;;5.00;99.90;;;;;;6273021;22;20015;-82
2022/01/28 06:55:38;;;;;;;23.63;5.17;;;5.10;99.90;;;;;;6246413;22;20019;-82
2022/01/28 06:58:05;;;;;;;28.80;5.70;;;5.10;99.90;;;;;;6197023;22;20156;-82
2022/01/28 07:00:37;;;;;;;21.03;5.90;;;5.00;99.90;;;;;;6221672;22;20574;-82
2022/01/28 07:03:23;;;;;;;23.83;5.03;;;5.00;99.90;;;;;;6246989;22;20023;-82
2022/01/28 07:05:48;;;;;;;24.33;5.57;;;5.10;99.90;;;;;;6247384;22;20030;-81
2022/01/28 07:08:14;;;;;;;24.37;4.90;;;5.10;99.90;;;;;;6221326;22;20015;-82
2022/01/28 07:10:40;;;;;;;20.83;4.63;;;5.00;99.90;;;;;;6247667;22;20053;-82
2022/01/28 07:13:06;;;;;;;23.17;5.70;;;5.00;99.90;;;;;;6248086;22;20027;-82
2022/01/28 07:15:32;;;;;;;21.47;4.77;;;5.00;99.90;;;;;;6247630;22;20041;-82
2022/01/28 07:18:02;;;;;;;25.93;6.10;;;5.00;99.90;;;;;;6249446;22;20023;-81
2022/01/28 07:20:33;;;;;;;26.35;5.85;;;5.00;99.90;;;;;;6272660;22;20015;-81
2022/01/28 07:22:59;;;;;;;17.97;4.33;;;5.00;99.90;;;;;;6223594;22;20015;-82
2022/01/28 07:25:26;;;;;;;23.50;4.93;;;5.00;99.90;;;;;;6247433;22;20443;-84
2022/01/28 07:27:52;;;;;;;19.80;5.20;;;5.00;99.90;;;;;;6249232;22;20015;-82
2022/01/28 07:30:18;;;;;;;24.40;5.53;;;5.00;99.90;;;;;;6246685;22;20023;-82
2022/01/28 07:32:49;;;;;;;20.73;5.70;;;5.10;99.90;;;;;;6221940;22;20022;-83
2022/01/28 07:35:18;;;;;;;25.90;5.63;;;5.00;99.90;;;;;;6244953;22;20047;-82
2022/01/28 07:37:47;;;;;;;27.23;5.70;;;5.00;99.90;;;;;;6245851;22;20075;-82
2022/01/28 07:40:13;;;;;;;22.33;4.73;;;5.00;99.90;;;;;;6270369;22;20011;-82
2022/01/28 07:42:39;;;;;;;22.40;5.17;;;5.00;99.90;;;;;;6220561;22;20051;-83
2022/01/28 07:45:07;;;;;;;26.00;5.73;;;5.00;99.90;;;;;;6246347;22;20015;-83
2022/01/28 07:47:36;;;;;;;23.23;5.43;;;4.90;99.90;;;;;;6245853;22;20019;-83
2022/01/28 07:50:06;;;;;;;21.13;5.30;;;5.00;99.90;;;;;;6219027;22;20015;-82
2022/01/28 07:52:32;;;;;;;25.30;4.93;;;5.00;99.90;;;;;;6219396;22;20041;-83
2022/01/28 07:55:01;;;;;;;22.93;5.50;;;5.00;99.90;;;;;;6244646;22;20016;-83
2022/01/28 07:57:30;;;;;;;22.50;5.33;;;5.00;99.90;;;;;;6247924;22;20094;-83
2022/01/28 08:00:00;;;;;;;24.70;4.97;;;5.00;99.90;;;;;;6250845;22;20106;-83
2022/01/28 08:02:27;;;;;;;24.65;5.38;;;4.90;99.90;;;;;;6249017;22;20019;-83
2022/01/28 08:04:54;;;;;;;25.00;5.93;;;4.90;99.90;;;;;;6247318;22;20042;-82
2022/01/28 08:07:22;;;;;;;25.27;4.80;;;4.90;99.90;;;;;;6223622;22;20323;-83
2022/01/28 08:09:47;;;;;;;29.30;6.47;;;4.80;99.90;;;;;;6224547;22;20104;-83
2022/01/28 08:12:13;;;;;;;26.70;5.43;;;4.70;99.90;;;;;;6223170;22;20019;-83
2022/01/28 08:14:39;;;;;;;24.67;5.37;;;4.70;99.90;;;;;;6248747;22;20011;-83
2022/01/28 08:17:05;;;;;;;23.97;5.87;;;4.70;99.90;;;;;;6248752;22;20027;-83
2022/01/28 08:19:32;;;;;;;27.00;5.53;;;4.60;99.90;;;;;;6222630;22;20054;-82
2022/01/28 08:22:00;;;;;;;26.00;5.17;;;4.50;99.90;;;;;;6273340;22;20023;-83
2022/01/28 08:24:34;;;;;;;22.00;5.40;;;4.50;99.90;;;;;;6222321;22;20037;-83
2022/01/28 08:26:59;;;;;;;25.40;6.10;;;4.50;99.90;;;;;;6247639;22;20041;-83
2022/01/28 08:29:25;;;;;;;22.00;5.63;;;4.40;99.90;;;;;;6247193;22;20514;-83
2022/01/28 08:31:54;;;;;;;25.77;5.00;;;4.40;99.90;;;;;;6222572;22;20094;-83
2022/01/28 08:34:19;;;;;;;27.57;5.57;;;4.40;99.90;;;;;;6243884;22;20368;-83
2022/01/28 08:36:45;;;;;;;23.90;5.83;;;4.30;99.90;;;;;;6244284;22;20046;-83
2022/01/28 08:39:11;;;;;;;23.10;5.23;;;4.30;99.90;;;;;;6223576;22;20459;-82
2022/01/28 08:41:40;;;;;;;28.53;5.77;;;4.30;99.90;;;;;;6247855;22;20034;-82
2022/01/28 08:44:06;;;;;;;24.30;5.27;;;4.30;99.90;;;;;;6248982;22;20019;-83
2022/01/28 08:46:32;;;;;;;24.87;5.73;;;4.30;99.90;;;;;;6272721;22;20016;-82
2022/01/28 08:48:58;;;;;;;22.70;5.20;;;4.40;99.90;;;;;;6273882;22;20015;-83
2022/01/28 08:51:24;;;;;;;21.00;4.83;;;4.40;99.90;;;;;;6249272;22;20015;-82
2022/01/28 08:53:50;;;;;;;28.87;5.53;;;4.40;99.90;;;;;;6223161;22;20015;-82
2022/01/28 08:56:16;;;;;;;22.87;5.50;;;4.50;99.90;;;;;;6273274;22;20054;-82
2022/01/28 08:58:41;;;;;;;23.43;5.57;;;4.50;99.90;;;;;;6247794;22;20046;-83
2022/01/28 09:01:10;;;;;;;26.40;5.83;;;4.60;99.90;;;;;;6248185;22;20016;-83
2022/01/28 09:03:36;;;;;;;23.77;5.63;;;4.70;99.90;;;;;;6273105;22;20022;-82
2022/01/28 09:06:05;;;;;;;24.00;4.83;;;4.70;99.90;;;;;;6224211;22;20079;-82
2022/01/28 09:08:31;;;;;;;24.93;5.10;;;4.80;99.90;;;;;;6222635;22;20340;-82
2022/01/28 09:11:28;;;;;;;27.93;5.80;;;4.80;99.90;;;;;;6246707;22;20505;-82
2022/01/28 09:13:46;;;;;;;24.33;5.90;;;4.90;99.90;;;;;;6271761;22;20019;-82
2022/01/28 09:16:12;;;;;;;28.90;6.07;;;4.90;99.90;;;;;;6223183;22;20031;-82
2022/01/28 09:18:38;;;;;;;27.93;5.10;;;4.90;99.90;;;;;;6222488;22;20023;-81
2022/01/28 09:21:03;;;;;;;27.20;5.93;;;4.90;99.90;;;;;;6247902;22;20019;-80
2022/01/28 09:23:29;;;;;;;31.00;6.10;;;5.00;99.90;;;;;;6223225;22;20026;-82
2022/01/28 09:25:55;;;;;;;24.07;6.10;;;5.10;99.90;;;;;;6247849;22;20019;-81
2022/01/28 09:28:21;;;;;;;26.27;5.27;;;5.20;99.90;;;;;;6248531;22;20022;-81
2022/01/28 09:30:47;;;;;;;24.33;5.63;;;5.30;99.90;;;;;;6223709;22;20019;-81
2022/01/28 09:33:12;;;;;;;25.40;5.70;;;5.40;99.90;;;;;;6246721;22;20015;-80
2022/01/28 09:35:41;;;;;;;27.17;5.90;;;5.50;99.90;;;;;;6247082;22;20011;-81
2022/01/28 09:38:07;;;;;;;21.83;6.07;;;5.60;99.90;;;;;;6243097;22;20077;-81
2022/01/28 09:40:33;;;;;;;22.47;4.53;;;5.70;99.90;;;;;;6248391;22;20019;-81
2022/01/28 09:43:02;;;;;;;25.97;6.40;;;5.90;99.90;;;;;;6245208;22;20026;-81
2022/01/28 09:45:28;;;;;;;23.40;5.00;;;5.90;99.90;;;;;;6270989;22;20015;-82
2022/01/28 09:47:56;;;;;;;20.57;4.63;;;6.00;99.90;;;;;;6195959;22;20532;-83
2022/01/28 09:50:31;;;;;;;29.93;5.43;;;6.10;99.90;;;;;;6247598;22;20011;-81
2022/01/28 09:53:01;;;;;;;29.57;5.60;;;6.10;99.90;;;;;;6246841;22;20023;-81
2022/01/28 09:55:31;;;;;;;26.20;4.97;;;6.10;99.90;;;;;;6247288;22;20019;-80
2022/01/28 09:58:00;;;;;;;24.65;5.10;;;6.20;99.90;;;;;;6246416;22;20022;-81
2022/01/28 10:00:27;;;;;;;27.20;4.50;;;6.20;99.90;;;;;;6247221;22;20026;-82
2022/01/28 10:03:15;;;;;;;21.75;5.47;;;6.20;99.90;;;;;;6249012;22;20030;-81
2022/01/28 10:05:46;;;;;;;21.02;5.97;;;6.20;99.90;;;;;;6274151;22;20023;-82
2022/01/28 10:08:16;;;;;;;24.52;6.13;;;6.20;99.90;;;;;;6274272;22;20437;-81
2022/01/28 10:10:47;;;;;;;28.95;5.00;;;6.20;99.90;;;;;;6248773;22;20026;-81
2022/01/28 10:13:19;;;;;;;22.45;5.35;;;6.30;99.90;;;;;;6249153;22;20553;-81
2022/01/28 10:15:59;;;;;;;22.30;4.60;;;6.20;99.90;;;;;;6247729;22;20043;-81
2022/01/28 10:18:55;;;;;;;25.15;5.43;;;6.40;99.90;;;;;;6246879;22;20027;-81
2022/01/28 10:21:23;;;;;;;29.90;6.05;;;6.30;99.90;;;;;;6254634;22;20026;-81
2022/01/28 10:23:58;;;;;;;25.83;5.72;;;6.30;99.90;;;;;;6273206;22;20015;-82
2022/01/28 10:26:32;;;;;;;18.90;4.57;;;6.40;99.90;;;;;;6246265;22;20060;-81
2022/01/28 10:28:59;;;;;;;23.55;4.95;;;6.40;99.90;;;;;;6248127;22;20475;-81
2022/01/28 10:31:39;;;;;;;26.27;4.88;;;6.40;99.90;;;;;;6248412;22;20015;-82
2022/01/28 10:34:16;;;;;;;22.63;5.17;;;6.40;99.90;;;;;;6248007;22;20019;-81
2022/01/28 10:36:43;;;;;;;23.00;5.45;;;6.50;99.90;;;;;;6273023;22;20038;-82
2022/01/28 10:39:21;;;;;;;18.45;4.40;;;6.50;99.90;;;;;;6248843;22;20019;-80
2022/01/28 10:41:59;;;;;;;25.65;4.93;;;6.60;99.90;;;;;;6247388;22;20118;-82
2022/01/28 10:44:26;;;;;;;19.75;4.90;;;6.60;99.90;;;;;;6248038;22;20011;-83
2022/01/28 10:47:01;;;;;;;18.13;4.93;;;6.60;99.90;;;;;;6221206;22;20059;-82
2022/01/28 10:49:30;;;;;;;23.67;4.25;;;6.60;99.90;;;;;;6248850;22;20289;-82
2022/01/28 10:52:13;;;;;;;20.58;4.93;;;6.60;99.90;;;;;;6248046;22;20347;-81
2022/01/28 10:54:42;;;;;;;30.40;5.15;;;6.70;99.90;;;;;;6248595;22;20393;-82
2022/01/28 10:57:09;;;;;;;26.30;5.07;;;6.80;99.90;;;;;;6271967;22;20329;-82
2022/01/28 10:59:38;;;;;;;24.02;4.60;;;6.80;99.90;;;;;;6247732;22;20022;-82
2022/01/28 11:02:05;;;;;;;26.75;4.88;;;6.80;99.90;;;;;;6273076;22;20019;-81
2022/01/28 11:04:33;;;;;;;25.63;5.32;;;6.80;99.90;;;;;;6221638;22;20066;-82
2022/01/28 11:07:00;;;;;;;23.30;4.82;;;6.80;99.90;;;;;;6273737;22;20015;-81
2022/01/28 11:09:26;;;;;;;25.10;5.25;;;6.80;99.90;;;;;;6248165;22;20025;-82
2022/01/28 11:11:53;;;;;;;26.85;4.82;;;6.80;99.90;;;;;;6247070;22;20019;-82
2022/01/28 11:14:20;;;;;;;22.88;5.32;;;6.80;99.90;;;;;;6248666;22;20424;-81
2022/01/28 11:16:47;;;;;;;31.20;5.22;;;6.80;99.90;;;;;;6247921;22;20443;-82
2022/01/28 11:19:16;;;;;;;26.83;4.45;;;6.80;99.90;;;;;;6273452;22;20434;-81
2022/01/28 11:21:51;;;;;;;20.38;4.70;;;6.80;99.90;;;;;;6247673;22;20015;-82
2022/01/28 11:24:49;;;;;;;21.35;5.03;;;6.90;99.90;;;;;;6248111;22;20399;-81
2022/01/28 11:27:35;;;;;;;23.85;4.90;;;6.90;99.90;;;;;;6247764;22;20522;-82
2022/01/28 11:30:18;;;;;;;24.58;4.75;;;6.90;99.90;;;;;;6222563;22;20015;-82
2022/01/28 11:33:06;;;;;;;22.10;5.13;;;6.90;99.90;;;;;;6272043;22;20012;-82
2022/01/28 11:35:38;;;;;;;20.92;4.47;;;7.00;99.90;;;;;;6272701;22;20019;-81
2022/01/28 11:38:29;;;;;;;21.15;4.55;;;7.10;99.90;;;;;;6248330;22;20343;-82
2022/01/28 11:41:06;;;;;;;24.10;4.72;;;7.20;99.90;;;;;;6248577;22;20015;-82
2022/01/28 11:43:34;;;;;;;20.17;5.07;;;7.20;99.90;;;;;;6272797;22;20019;-82
2022/01/28 11:46:23;;;;;;;22.23;5.00;;;7.20;99.90;;;;;;6220476;22;20019;-82
2022/01/28 11:48:55;;;;;;;24.75;5.43;;;7.20;99.90;;;;;;6270420;22;20019;-82
2022/01/28 11:51:39;;;;;;;20.45;5.05;;;7.20;99.90;;;;;;6245547;22;20015;-82
2022/01/28 11:57:55;;;;;;;22.05;4.20;;;7.20;99.90;;;;;;6245151;22;20463;-82
2022/01/28 12:00:34;;;;;;;23.40;5.20;;;7.20;99.90;;;;;;6246537;22;20038;-82
2022/01/28 12:03:02;;;;;;;16.27;3.63;;;7.20;99.90;;;;;;6272572;22;20015;-82
2022/01/28 12:05:31;;;;;;;19.02;4.13;;;7.20;99.90;;;;;;6221589;22;20015;-82
2022/01/28 12:08:01;;;;;;;19.73;4.30;;;7.20;99.90;;;;;;6247599;22;20015;-82
2022/01/28 12:10:32;;;;;;;18.60;3.80;;;7.20;99.90;;;;;;6247182;22;20015;-82
2022/01/28 12:13:05;;;;;;;26.40;4.93;;;7.30;99.90;;;;;;6247127;22;20030;-82
2022/01/28 12:18:58;;;;;;;20.30;4.00;;;7.20;99.90;;;;;;6180684;23;20021;-83
2022/01/28 12:21:31;;;;;;;22.58;3.88;;;7.10;99.90;;;;;;6218186;22;20088;-83
2022/01/28 12:24:20;;;;;;;21.63;3.67;;;7.10;99.90;;;;;;6273724;22;20481;-83
2022/01/28 12:26:59;;;;;;;21.00;4.72;;;7.10;99.90;;;;;;6259160;22;20015;-82
2022/01/28 12:29:37;;;;;;;21.70;4.40;;;7.10;99.90;;;;;;6247980;22;20335;-82
2022/01/28 12:32:04;;;;;;;22.00;3.95;;;7.10;99.90;;;;;;6248337;22;20041;-82
2022/01/28 12:34:30;;;;;;;20.73;4.45;;;7.20;99.90;;;;;;6245673;22;20015;-83
2022/01/28 12:37:02;;;;;;;21.48;4.15;;;7.30;99.90;;;;;;6220114;22;20054;-83
2022/01/28 12:39:33;;;;;;;17.52;4.03;;;7.30;99.90;;;;;;6247072;22;20011;-83
2022/01/28 12:45:02;;;;;;;17.45;3.47;;;7.40;99.90;;;;;;6229698;22;20023;-85
2022/01/28 12:47:33;;;;;;;20.15;4.03;;;7.40;99.90;;;;;;6247888;22;20015;-82
2022/01/28 12:50:03;;;;;;;18.80;3.42;;;7.50;99.90;;;;;;6248014;22;20015;-83
2022/01/28 12:52:34;;;;;;;17.52;3.60;;;7.40;99.90;;;;;;6246359;22;20522;-83
2022/01/28 12:55:00;;;;;;;21.17;5.03;;;7.50;99.90;;;;;;6248209;22;20346;-83
2022/01/28 12:57:28;;;;;;;19.42;4.25;;;7.60;99.90;;;;;;6272619;22;20023;-83
2022/01/28 12:59:54;;;;;;;25.10;5.05;;;7.60;99.90;;;;;;6221481;22;20012;-82
2022/01/28 13:02:21;;;;;;;19.83;4.18;;;7.60;99.90;;;;;;6246126;22;20051;-82
2022/01/28 13:09:51;;;;;;;17.55;3.47;;;7.60;99.90;;;;;;6250031;22;20098;-82
2022/01/28 13:12:26;;;;;;;19.95;4.28;;;7.60;99.90;;;;;;6220875;22;20490;-83
2022/01/28 13:14:52;;;;;;;19.30;3.72;;;7.60;99.90;;;;;;6246793;22;20016;-82
2022/01/28 13:17:20;;;;;;;18.45;3.70;;;7.60;99.90;;;;;;6247299;22;20545;-83
2022/01/28 13:19:58;;;;;;;19.45;4.53;;;7.60;99.90;;;;;;6272235;22;20019;-84
2022/01/28 13:22:25;;;;;;;17.60;3.50;;;7.50;99.90;;;;;;6273061;22;20025;-83
2022/01/28 13:24:52;;;;;;;16.00;3.60;;;7.50;99.90;;;;;;6247500;22;20188;-82
2022/01/28 13:27:20;;;;;;;18.95;3.63;;;7.50;99.90;;;;;;6246837;22;20160;-82
2022/01/28 13:29:53;;;;;;;19.70;3.80;;;7.60;99.90;;;;;;6272341;22;20049;-82
2022/01/28 13:32:29;;;;;;;19.38;4.88;;;7.60;99.90;;;;;;6248742;22;20463;-83
2022/01/28 13:35:00;;;;;;;18.50;3.97;;;7.60;99.90;;;;;;6273153;22;20019;-82
2022/01/28 13:37:38;;;;;;;;;;;7.50;99.90;;;;;;6248041;22;20026;-82
2022/01/28 13:40:24;;;;;;;18.58;4.20;;;7.40;99.90;;;;;;6247249;22;19922;-83
2022/01/28 13:42:59;;;;;;;16.42;3.53;;;7.40;99.90;;;;;;6255653;22;20391;-82
2022/01/28 13:45:30;;;;;;;20.77;3.97;;;7.40;99.90;;;;;;6246053;22;20131;-82
2022/01/28 13:47:56;;;;;;;20.42;3.83;;;7.50;99.90;;;;;;6272658;22;20015;-82
2022/01/28 13:50:30;;;;;;;16.38;3.70;;;7.60;99.90;;;;;;6246103;22;20358;-82
2022/01/28 13:53:18;;;;;;;17.92;3.45;;;7.60;99.90;;;;;;6247579;22;20355;-82
2022/01/28 13:55:45;;;;;;;20.38;4.15;;;7.60;99.90;;;;;;6273778;22;20452;-82
2022/01/28 13:58:11;;;;;;;20.50;3.88;;;7.60;99.90;;;;;;6268871;22;20539;-82
2022/01/28 14:00:39;;;;;;;22.75;3.70;;;7.60;99.90;;;;;;6219997;22;20023;-83
2022/01/28 14:03:15;;;;;;;18.10;3.67;;;7.70;99.90;;;;;;6239322;22;20019;-82
2022/01/28 14:05:54;;;;;;;18.85;4.13;;;7.70;99.90;;;;;;6239652;22;20027;-83
2022/01/28 14:08:52;;;;;;;19.48;3.78;;;7.70;99.90;;;;;;6240796;22;20053;-82
2022/01/28 14:11:33;;;;;;;16.65;3.70;;;7.80;99.90;;;;;;6270062;22;20340;-83
2022/01/28 14:14:21;;;;;;;18.55;3.60;;;7.80;99.90;;;;;;6246657;22;20030;-83
2022/01/28 14:17:09;;;;;;;18.80;3.58;;;7.80;99.90;;;;;;6245898;22;20105;-83
2022/01/28 14:19:40;;;;;;;17.13;2.78;;;7.80;99.90;;;;;;6246933;22;20026;-82
2022/01/28 14:22:08;;;;;;;14.50;3.25;;;7.70;99.90;;;;;;6222574;22;20035;-83
2022/01/28 14:24:36;;;;;;;19.40;3.60;;;7.70;99.90;;;;;;6199733;22;20314;-83
2022/01/28 14:32:15;;;;;;;16.50;3.00;;;7.50;99.90;;;;;;6272485;22;20514;-82
2022/01/28 14:34:43;;;;;;;13.85;3.00;;;7.50;99.90;;;;;;6272453;22;20008;-84
2022/01/28 14:37:10;;;;;;;16.65;3.10;;;7.50;99.90;;;;;;6246811;22;20015;-83
2022/01/28 14:39:37;;;;;;;17.27;2.97;;;7.50;99.90;;;;;;6271512;22;20184;-82